ěÝzenÝ letovÚho provozu ╚eskÚ republiky
Letiste: LKMT Aktualizace: 22.01.2020 00:00:28  UTC
 METAR LKMT 22.01. 00:00 ...
METAR LKMT 220000Z 23018KT 7000 OVC010 M01/M03 Q1034 NOSIG RMK REG QNH 1029=
 TAF LKMT 21.01. 23:00 ...
TAF LKMT 212300Z 2200/2306 21015KT 7000 OVC009      TEMPO 2200/2211 23016G28KT 9999 SCT013      BECMG 2206/2209 CAVOK      BECMG 2215/2217 35008KT 5000 BR BKN009      TEMPO 2217/2306 2000 -SN BR BKN004=